| time (UTC) | temp F | wind direction | speed knots | gust knots | rain 1hr in | rain 24hr in | rain mn in | humidity % | barometer mb |
| 20260510060805 | 74 | 29 | 2.6 | 8.7 | 0.00 | 0.00 | 0.00 | 43 | 1023.5 |
| 20260510060305 | 73 | 31 | 2.6 | 6.1 | 0.00 | 0.00 | 0.00 | 42 | 1023.5 |
| 20260510055805 | 74 | 21 | 4.3 | 10.4 | 0.00 | 0.00 | 0.00 | 41 | 1023.5 |
| 20260510055307 | 74 | 0 | 2.6 | 8.7 | 0.00 | 0.00 | 0.00 | 43 | 1023.5 |
| 20260510054804 | 73 | 330 | 1.7 | 7.8 | 0.00 | 0.00 | 0.00 | 43 | 1023.5 |
| 20260510053804 | 73 | 30 | 4.3 | 8.7 | 0.00 | 0.00 | 0.00 | 43 | 1023.5 |
| 20260510053305 | 74 | 30 | 4.3 | 7.8 | 0.00 | 0.00 | 0.00 | 45 | 1023.5 |
| 20260510052805 | 73 | 20 | 4.3 | 8.7 | 0.00 | 0.00 | 0.00 | 43 | 1023.5 |
| 20260510052306 | 73 | 358 | 2.6 | 8.7 | 0.00 | 0.00 | 0.00 | 44 | 1023.5 |
| 20260510051805 | 73 | 20 | 5.2 | 10.4 | 0.00 | 0.00 | 0.00 | 43 | 1023.5 |
| 20260510051305 | 73 | 3 | 5.2 | 10.4 | 0.00 | 0.00 | 0.00 | 44 | 1025.5 |
| 20260510050804 | 73 | 78 | 4.3 | 10.4 | 0.00 | 0.00 | 0.00 | 45 | 1025.5 |
| 20260510050305 | 73 | 16 | 4.3 | 10.4 | 0.00 | 0.00 | 0.00 | 45 | 1025.5 |
| 20260510045805 | 73 | 15 | 3.5 | 10.4 | 0.00 | 0.00 | 0.00 | 46 | 1025.5 |
| 20260510044804 | 73 | 357 | 2.6 | 8.7 | 0.00 | 0.00 | 0.00 | 46 | 1025.5 |
| 20260510044305 | 73 | 12 | 5.2 | 7.8 | 0.00 | 0.00 | 0.00 | 46 | 1025.5 |
| 20260510043805 | 73 | 5 | 3.5 | 7.0 | 0.00 | 0.00 | 0.00 | 45 | 1025.5 |
| 20260510043304 | 73 | 358 | 3.5 | 10.4 | 0.00 | 0.00 | 0.00 | 47 | 1025.5 |
| 20260510042804 | 72 | 34 | 3.5 | 8.7 | 0.00 | 0.00 | 0.00 | 47 | 1025.5 |
| 20260510042306 | 72 | 12 | 5.2 | 12.2 | 0.00 | 0.00 | 0.00 | 47 | 1025.5 |
| 20260510041805 | 72 | 20 | 4.3 | 10.4 | 0.00 | 0.00 | 0.00 | 46 | 1025.5 |
| 20260510041305 | 72 | 354 | 3.5 | 10.4 | 0.00 | 0.00 | 0.00 | 47 | 1025.5 |
| 20260510040805 | 72 | 352 | 4.3 | 7.8 | 0.00 | 0.00 | 0.00 | 48 | 1025.5 |
| 20260510040305 | 72 | 352 | 4.3 | 10.4 | 0.00 | 0.00 | 0.00 | 47 | 1025.5 |
| 20260510035805 | 72 | 2 | 4.3 | 10.4 | 0.00 | 0.00 | 0.00 | 47 | 1025.5 |
| 20260510035306 | 72 | 346 | 2.6 | 8.7 | 0.00 | 0.00 | 0.00 | 50 | 1025.5 |
| 20260510034805 | 71 | 356 | 5.2 | 10.4 | 0.00 | 0.00 | 0.00 | 50 | 1025.5 |
| 20260510034304 | 71 | 350 | 3.5 | 12.2 | 0.00 | 0.00 | 0.00 | 51 | 1025.5 |
| 20260510033805 | 70 | 5 | 4.3 | 7.8 | 0.00 | 0.00 | 0.00 | 50 | 1025.5 |
| 20260510032805 | 70 | 11 | 5.2 | 8.7 | 0.00 | 0.00 | 0.00 | 51 | 1025.5 |
| 20260510032306 | 70 | 21 | 4.3 | 8.7 | 0.00 | 0.00 | 0.00 | 52 | 1025.5 |
| 20260510031805 | 70 | 23 | 6.1 | 13.0 | 0.00 | 0.00 | 0.00 | 51 | 1025.5 |
| 20260510031305 | 70 | 343 | 3.5 | 10.4 | 0.00 | 0.00 | 0.00 | 52 | 1025.6 |
| 20260510030805 | 70 | 44 | 2.6 | 7.8 | 0.00 | 0.00 | 0.00 | 53 | 1025.6 |
| 20260510030305 | 70 | 16 | 2.6 | 10.4 | 0.00 | 0.00 | 0.00 | 53 | 1025.6 |
| 20260510025804 | 69 | 358 | 4.3 | 10.4 | 0.00 | 0.00 | 0.00 | 54 | 1025.6 |
| 20260510025306 | 69 | 2 | 4.3 | 12.2 | 0.00 | 0.00 | 0.00 | 53 | 1025.7 |
| 20260510024805 | 69 | 32 | 6.1 | 13.0 | 0.00 | 0.00 | 0.00 | 52 | 1026.2 |
| 20260510024306 | 69 | 1 | 4.3 | 10.4 | 0.00 | 0.00 | 0.00 | 54 | 1026.2 |
| 20260510023805 | 69 | 10 | 4.3 | 10.4 | 0.00 | 0.00 | 0.00 | 53 | 1026.2 |
| 20260510023304 | 68 | 339 | 4.3 | 13.0 | 0.00 | 0.00 | 0.00 | 54 | 1026.2 |
| 20260510022810 | 68 | 341 | 4.3 | 8.7 | 0.00 | 0.00 | 0.00 | 54 | 1026.2 |
| 20260510022306 | 68 | 358 | 7.8 | 11.3 | 0.00 | 0.00 | 0.00 | 54 | 1026.2 |
| 20260510021805 | 68 | 4 | 4.3 | 7.0 | 0.00 | 0.00 | 0.00 | 55 | 1026.2 |
| 20260510021305 | 67 | 12 | 5.2 | 10.4 | 0.00 | 0.00 | 0.00 | 55 | 1026.2 |
| 20260510020804 | 67 | 23 | 6.1 | 15.6 | 0.00 | 0.00 | 0.00 | 56 | 1026.2 |
| 20260510020305 | 66 | 79 | 4.3 | 10.4 | 0.00 | 0.00 | 0.00 | 59 | 1026.2 |
| 20260510015306 | 65 | 57 | 2.6 | 7.8 | 0.00 | 0.00 | 0.00 | 62 | 1026.2 |
| 20260510014805 | 64 | 42 | 4.3 | 7.0 | 0.00 | 0.00 | 0.00 | 62 | 1026.2 |
| 20260510014304 | 64 | 16 | 2.6 | 5.2 | 0.00 | 0.00 | 0.00 | 62 | 1026.2 |
| 20260510013804 | 64 | 41 | 2.6 | 6.1 | 0.00 | 0.00 | 0.00 | 63 | 1026.5 |
| 20260510013305 | 63 | 53 | 4.3 | 8.7 | 0.00 | 0.00 | 0.00 | 63 | 1026.5 |
| 20260510012804 | 63 | 21 | 4.3 | 10.4 | 0.00 | 0.00 | 0.00 | 63 | 1026.5 |
| 20260510011305 | 62 | 26 | 4.3 | 7.8 | 0.00 | 0.00 | 0.00 | 65 | 1026.5 |
| 20260510010805 | 61 | 13 | 3.5 | 7.8 | 0.00 | 0.00 | 0.00 | 66 | 1026.5 |
| 20260510010305 | 61 | 51 | 5.2 | 7.8 | 0.00 | 0.00 | 0.00 | 66 | 1026.5 |
| 20260510005806 | 60 | 33 | 2.6 | 8.7 | 0.00 | 0.00 | 0.00 | 66 | 1026.5 |
| 20260510005306 | 60 | 18 | 5.2 | 10.4 | 0.00 | 0.00 | 0.00 | 67 | 1026.5 |
| 20260510004305 | 59 | 55 | 4.3 | 7.8 | 0.00 | 0.00 | 0.00 | 68 | 1026.5 |
| 20260510003305 | 59 | 35 | 3.5 | 8.7 | 0.00 | 0.00 | 0.00 | 68 | 1026.5 |
| 20260510002306 | 58 | 14 | 4.3 | 8.7 | 0.00 | 0.00 | 0.00 | 69 | 1026.5 |
| 20260510001805 | 58 | 41 | 3.5 | 10.4 | 0.00 | 0.00 | 0.00 | 69 | 1026.5 |
| 20260510001304 | 58 | 33 | 6.1 | 10.4 | 0.00 | 0.00 | 0.00 | 70 | 1026.5 |
| 20260510000804 | 57 | 33 | 4.3 | 8.7 | 0.00 | 0.00 | 0.00 | 70 | 1026.5 |
| 20260510000306 | 57 | 41 | 3.5 | 8.7 | 0.00 | 0.00 | 0.00 | 70 | 1026.5 |
| 20260509235805 | 57 | 52 | 3.5 | 11.3 | 0.00 | 0.00 | 0.00 | 71 | 1026.5 |
| 20260509235307 | 56 | 37 | 4.3 | 7.8 | 0.00 | 0.00 | 0.00 | 71 | 1026.5 |
| 20260509234806 | 56 | 49 | 4.3 | 8.7 | 0.00 | 0.00 | 0.00 | 71 | 1026.5 |
| 20260509234304 | 56 | 25 | 3.5 | 6.1 | 0.00 | 0.00 | 0.00 | 72 | 1026.5 |
| 20260509233804 | 55 | 25 | 4.3 | 7.0 | 0.00 | 0.00 | 0.00 | 72 | 1026.4 |
| 20260509233304 | 55 | 40 | 3.5 | 7.8 | 0.00 | 0.00 | 0.00 | 73 | 1025.8 |
| 20260509232805 | 55 | 45 | 3.5 | 6.1 | 0.00 | 0.00 | 0.00 | 73 | 1025.8 |
| 20260509231805 | 55 | 16 | 1.7 | 5.2 | 0.00 | 0.00 | 0.00 | 73 | 1025.8 |
| 20260509230805 | 54 | 18 | 4.3 | 10.4 | 0.00 | 0.00 | 0.00 | 73 | 1025.8 |
| 20260509230304 | 54 | 48 | 2.6 | 6.1 | 0.00 | 0.00 | 0.00 | 73 | 1025.8 |
| 20260509225804 | 54 | 47 | 2.6 | 6.1 | 0.00 | 0.00 | 0.00 | 73 | 1025.8 |
| 20260509225306 | 54 | 44 | 2.6 | 6.1 | 0.00 | 0.00 | 0.00 | 73 | 1025.8 |
| 20260509224305 | 54 | 33 | 4.3 | 8.7 | 0.00 | 0.00 | 0.00 | 73 | 1025.8 |
| 20260509223804 | 54 | 42 | 4.3 | 10.4 | 0.00 | 0.00 | 0.00 | 73 | 1025.8 |
| 20260509223304 | 54 | 34 | 2.6 | 10.4 | 0.00 | 0.00 | 0.00 | 73 | 1025.8 |
| 20260509222804 | 54 | 44 | 4.3 | 8.7 | 0.00 | 0.00 | 0.00 | 73 | 1025.8 |
| 20260509222307 | 54 | 33 | 3.5 | 7.0 | 0.00 | 0.00 | 0.00 | 73 | 1025.8 |
| 20260509221804 | 54 | 42 | 4.3 | 7.0 | 0.00 | 0.00 | 0.00 | 73 | 1025.8 |
| 20260509220804 | 54 | 46 | 4.3 | 7.0 | 0.00 | 0.00 | 0.00 | 73 | 1025.8 |
| 20260509220305 | 54 | 39 | 3.5 | 7.0 | 0.00 | 0.00 | 0.00 | 73 | 1025.8 |
| 20260509215805 | 54 | 38 | 3.5 | 7.8 | 0.00 | 0.00 | 0.00 | 72 | 1025.8 |
| 20260509215306 | 54 | 39 | 4.3 | 7.0 | 0.00 | 0.00 | 0.00 | 72 | 1025.8 |
| 20260509214805 | 54 | 46 | 4.3 | 7.0 | 0.00 | 0.00 | 0.00 | 72 | 1025.8 |
| 20260509214304 | 54 | 51 | 4.3 | 8.7 | 0.00 | 0.00 | 0.00 | 72 | 1025.8 |
| 20260509213804 | 54 | 42 | 3.5 | 8.7 | 0.00 | 0.00 | 0.00 | 72 | 1025.8 |
| 20260509213305 | 54 | 32 | 4.3 | 7.0 | 0.00 | 0.00 | 0.00 | 72 | 1025.8 |
| 20260509212804 | 54 | 47 | 3.5 | 7.0 | 0.00 | 0.00 | 0.00 | 72 | 1025.8 |
| 20260509212306 | 55 | 45 | 3.5 | 7.0 | 0.00 | 0.00 | 0.00 | 72 | 1025.8 |
| 20260509211804 | 54 | 47 | 4.3 | 7.8 | 0.00 | 0.00 | 0.00 | 72 | 1025.7 |
| 20260509211304 | 54 | 43 | 4.3 | 6.1 | 0.00 | 0.00 | 0.00 | 72 | 1025.3 |
| 20260509210805 | 55 | 53 | 4.3 | 7.0 | 0.00 | 0.00 | 0.00 | 72 | 1025.3 |
| 20260509210305 | 55 | 39 | 3.5 | 5.2 | 0.00 | 0.00 | 0.00 | 72 | 1025.3 |
| 20260509205805 | 55 | 47 | 5.2 | 10.4 | 0.00 | 0.00 | 0.00 | 72 | 1025.3 |
| 20260509204804 | 54 | 41 | 4.3 | 7.8 | 0.00 | 0.00 | 0.00 | 73 | 1025.3 |
| 20260509204305 | 54 | 30 | 4.3 | 7.8 | 0.00 | 0.00 | 0.00 | 73 | 1025.3 |
| 20260509203804 | 54 | 47 | 3.5 | 7.8 | 0.00 | 0.00 | 0.00 | 73 | 1025.3 |
| 20260509203304 | 54 | 38 | 3.5 | 10.4 | 0.00 | 0.00 | 0.00 | 73 | 1025.3 |
| 20260509202804 | 54 | 36 | 3.5 | 6.1 | 0.00 | 0.00 | 0.00 | 73 | 1025.3 |
| 20260509202307 | 54 | 30 | 4.3 | 7.8 | 0.00 | 0.00 | 0.00 | 73 | 1025.3 |
| 20260509201805 | 54 | 29 | 3.5 | 6.1 | 0.00 | 0.00 | 0.00 | 74 | 1025.3 |
| 20260509201305 | 53 | 40 | 4.3 | 7.8 | 0.00 | 0.00 | 0.00 | 74 | 1025.2 |
| 20260509200805 | 53 | 36 | 1.7 | 6.1 | 0.00 | 0.00 | 0.00 | 75 | 1025.2 |
| 20260509200304 | 53 | 22 | 1.7 | 2.6 | 0.00 | 0.00 | 0.00 | 76 | 1025.2 |
| 20260509195805 | 52 | 42 | 2.6 | 5.2 | 0.00 | 0.00 | 0.00 | 76 | 1025.2 |
| 20260509194804 | 52 | 52 | 1.7 | 2.6 | 0.00 | 0.00 | 0.00 | 76 | 1025.2 |
| 20260509194305 | 52 | 45 | 1.7 | 2.6 | 0.00 | 0.00 | 0.00 | 76 | 1025.2 |
| 20260509193805 | 52 | 46 | 2.6 | 4.3 | 0.00 | 0.00 | 0.00 | 76 | 1025.2 |
| 20260509193305 | 52 | 48 | 1.7 | 2.6 | 0.00 | 0.00 | 0.00 | 76 | 1025.2 |
| 20260509192805 | 52 | 45 | 1.7 | 2.6 | 0.00 | 0.00 | 0.00 | 76 | 1025.2 |
| 20260509192306 | 52 | 43 | 0.9 | 1.7 | 0.00 | 0.00 | 0.00 | 76 | 1025.2 |
| 20260509191805 | 52 | 36 | 1.7 | 4.3 | 0.00 | 0.00 | 0.00 | 76 | 1025.2 |
| 20260509191304 | 52 | 50 | 2.6 | 2.6 | 0.00 | 0.00 | 0.00 | 76 | 1025.4 |
| 20260509190805 | 52 | 49 | 2.6 | 2.6 | 0.00 | 0.00 | 0.00 | 77 | 1025.4 |
| 20260509190304 | 52 | 54 | 2.6 | 4.3 | 0.00 | 0.00 | 0.00 | 77 | 1025.4 |
| 20260509185306 | 51 | 60 | 2.6 | 4.3 | 0.00 | 0.00 | 0.00 | 78 | 1025.4 |
| 20260509184806 | 51 | 56 | 1.7 | 4.3 | 0.00 | 0.00 | 0.00 | 78 | 1025.4 |
| 20260509184305 | 51 | 61 | 2.6 | 2.6 | 0.00 | 0.00 | 0.00 | 78 | 1025.4 |
| 20260509183305 | 51 | 51 | 1.7 | 5.2 | 0.00 | 0.00 | 0.00 | 79 | 1025.4 |
| 20260509182805 | 51 | 74 | 1.7 | 2.6 | 0.00 | 0.00 | 0.00 | 80 | 1025.4 |
| 20260509182306 | 51 | 65 | 1.7 | 2.6 | 0.00 | 0.00 | 0.00 | 82 | 1025.4 |
| 20260509180805 | 49 | 60 | 2.6 | 4.3 | 0.00 | 0.00 | 0.00 | 87 | 1025.4 |
| 20260509180304 | 49 | 48 | 2.6 | 4.3 | 0.00 | 0.00 | 0.00 | 88 | 1025.4 |
| 20260509175306 | 48 | 56 | 1.7 | 2.6 | 0.00 | 0.00 | 0.00 | 90 | 1025.3 |
| 20260509174804 | 47 | 50 | 1.7 | 2.6 | 0.00 | 0.00 | 0.00 | 90 | 1025.7 |
| 20260509173805 | 47 | 48 | 1.7 | 2.6 | 0.00 | 0.00 | 0.00 | 91 | 1025.7 |
| 20260509172804 | 47 | 57 | 1.7 | 2.6 | 0.00 | 0.00 | 0.00 | 91 | 1025.7 |
| 20260509172306 | 46 | 52 | 1.7 | 2.6 | 0.00 | 0.00 | 0.00 | 91 | 1025.7 |
| 20260509171304 | 46 | 54 | 0.0 | 0.9 | 0.00 | 0.00 | 0.00 | 92 | 1025.7 |
| 20260509170804 | 46 | 54 | 0.0 | 1.7 | 0.00 | 0.00 | 0.00 | 92 | 1025.7 |
| 20260509165307 | 46 | 45 | 0.9 | 2.6 | 0.00 | 0.00 | 0.00 | 92 | 1025.7 |
| 20260509164305 | 46 | 66 | 0.9 | 1.7 | 0.00 | 0.00 | 0.00 | 91 | 1025.7 |
| 20260509163804 | 46 | 66 | 0.9 | 1.7 | 0.00 | 0.00 | 0.00 | 91 | 1025.7 |
| 20260509163305 | 45 | 66 | 0.9 | 1.7 | 0.00 | 0.00 | 0.00 | 91 | 1025.7 |
| 20260509162307 | 45 | 66 | 0.9 | 1.7 | 0.00 | 0.00 | 0.00 | 91 | 1025.9 |
| 20260509161806 | 45 | 66 | 0.9 | 1.7 | 0.00 | 0.00 | 0.00 | 90 | 1025.9 |
| 20260509161305 | 45 | 66 | 0.9 | 1.7 | 0.00 | 0.00 | 0.00 | 90 | 1025.9 |
| 20260509160825 | 45 | 66 | 0.9 | 1.7 | 0.00 | 0.00 | 0.00 | 90 | 1025.9 |
| 20260509160305 | 45 | 66 | 0.9 | 1.7 | 0.00 | 0.00 | 0.00 | 90 | 1025.9 |
| 20260509155805 | 45 | 66 | 0.9 | 0.9 | 0.00 | 0.00 | 0.00 | 90 | 1025.9 |
| 20260509155306 | 45 | 66 | 0.9 | 1.7 | 0.00 | 0.00 | 0.00 | 89 | 1025.9 |
| 20260509154305 | 46 | 66 | 0.0 | 0.9 | 0.00 | 0.00 | 0.00 | 89 | 1025.9 |
| 20260509153805 | 46 | 66 | 0.0 | 0.0 | 0.00 | 0.00 | 0.00 | 89 | 1025.9 |
| 20260509152804 | 46 | 66 | 0.0 | 0.0 | 0.00 | 0.00 | 0.00 | 89 | 1025.9 |
| 20260509152306 | 46 | 66 | 0.0 | 0.0 | 0.00 | 0.00 | 0.00 | 88 | 1025.9 |
| 20260509151805 | 46 | 66 | 0.0 | 0.9 | 0.00 | 0.00 | 0.00 | 88 | 1025.9 |
| 20260509151304 | 46 | 66 | 0.0 | 0.9 | 0.00 | 0.00 | 0.00 | 88 | 1026.2 |
| 20260509150305 | 46 | 66 | 0.0 | 0.9 | 0.00 | 0.00 | 0.00 | 87 | 1026.2 |
| 20260509145806 | 47 | 66 | 0.9 | 0.9 | 0.00 | 0.00 | 0.00 | 87 | 1026.2 |
| 20260509145306 | 47 | 66 | 0.0 | 0.9 | 0.00 | 0.00 | 0.00 | 87 | 1026.2 |
| 20260509144804 | 48 | 66 | 0.0 | 0.0 | 0.00 | 0.00 | 0.00 | 88 | 1026.2 |
| 20260509144305 | 48 | 66 | 0.0 | 0.0 | 0.00 | 0.00 | 0.00 | 88 | 1026.2 |
| 20260509143805 | 48 | 66 | 0.0 | 0.0 | 0.00 | 0.00 | 0.00 | 88 | 1026.0 |
| 20260509143306 | 48 | 66 | 0.0 | 0.9 | 0.00 | 0.00 | 0.00 | 88 | 1026.0 |
| 20260509142804 | 48 | 66 | 0.0 | 0.9 | 0.00 | 0.00 | 0.00 | 88 | 1026.0 |
| 20260509142307 | 48 | 66 | 0.0 | 1.7 | 0.00 | 0.00 | 0.00 | 88 | 1026.0 |
| 20260509141806 | 48 | 67 | 0.9 | 1.7 | 0.00 | 0.00 | 0.00 | 88 | 1026.0 |
| 20260509141305 | 48 | 56 | 1.7 | 2.6 | 0.00 | 0.00 | 0.00 | 87 | 1026.0 |
| 20260509140805 | 47 | 69 | 0.9 | 1.7 | 0.00 | 0.00 | 0.00 | 87 | 1026.0 |
| 20260509140305 | 48 | 69 | 0.9 | 1.7 | 0.00 | 0.00 | 0.00 | 86 | 1026.0 |
| 20260509135805 | 48 | 70 | 0.9 | 1.7 | 0.00 | 0.00 | 0.00 | 85 | 1026.0 |
| 20260509135306 | 48 | 71 | 0.9 | 2.6 | 0.00 | 0.00 | 0.00 | 85 | 1026.0 |
| 20260509134804 | 48 | 28 | 0.9 | 1.7 | 0.00 | 0.00 | 0.00 | 84 | 1026.0 |
| 20260509134305 | 48 | 14 | 0.0 | 0.0 | 0.00 | 0.00 | 0.00 | 83 | 1026.0 |
| 20260509133806 | 48 | 14 | 0.9 | 0.9 | 0.00 | 0.00 | 0.00 | 83 | 1026.0 |
| 20260509133304 | 48 | 14 | 0.0 | 0.9 | 0.00 | 0.00 | 0.00 | 83 | 1026.0 |
| 20260509132805 | 49 | 14 | 0.0 | 0.0 | 0.00 | 0.00 | 0.00 | 82 | 1026.0 |
| 20260509132307 | 49 | 14 | 0.0 | 0.0 | 0.00 | 0.00 | 0.00 | 82 | 1026.0 |
| 20260509131805 | 49 | 14 | 0.0 | 0.9 | 0.00 | 0.00 | 0.00 | 82 | 1026.0 |
| 20260509131306 | 49 | 14 | 0.0 | 0.9 | 0.00 | 0.00 | 0.00 | 82 | 1026.0 |
| 20260509130806 | 49 | 14 | 0.0 | 0.9 | 0.00 | 0.00 | 0.00 | 81 | 1026.0 |
| 20260509130306 | 50 | 14 | 0.0 | 0.0 | 0.00 | 0.00 | 0.00 | 81 | 1026.0 |
| 20260509125806 | 50 | 14 | 0.0 | 0.0 | 0.00 | 0.00 | 0.00 | 80 | 1026.0 |
| 20260509125307 | 50 | 14 | 0.0 | 0.9 | 0.00 | 0.00 | 0.00 | 80 | 1026.0 |
| 20260509124805 | 50 | 14 | 0.0 | 0.9 | 0.00 | 0.00 | 0.00 | 80 | 1026.0 |
| 20260509124305 | 50 | 14 | 0.9 | 1.7 | 0.00 | 0.00 | 0.00 | 79 | 1026.0 |
| 20260509123806 | 51 | 14 | 0.9 | 1.7 | 0.00 | 0.00 | 0.00 | 79 | 1026.0 |
| 20260509123306 | 51 | 14 | 0.9 | 0.9 | 0.00 | 0.00 | 0.00 | 79 | 1026.0 |
| 20260509122804 | 51 | 14 | 0.0 | 0.0 | 0.00 | 0.00 | 0.00 | 79 | 1026.0 |
| 20260509122306 | 52 | 14 | 0.0 | 0.0 | 0.00 | 0.00 | 0.00 | 78 | 1026.0 |
| 20260509121305 | 52 | 14 | 0.0 | 0.0 | 0.00 | 0.00 | 0.00 | 77 | 1026.0 |
| 20260509120805 | 52 | 14 | 0.0 | 0.0 | 0.00 | 0.00 | 0.00 | 77 | 1026.0 |
| 20260509120305 | 53 | 14 | 0.0 | 0.0 | 0.00 | 0.00 | 0.00 | 76 | 1026.0 |
| 20260509115805 | 53 | 14 | 0.0 | 0.0 | 0.00 | 0.00 | 0.00 | 75 | 1026.0 |
| 20260509114805 | 53 | 14 | 0.0 | 0.0 | 0.00 | 0.00 | 0.00 | 75 | 1025.6 |
| 20260509114304 | 54 | 14 | 0.0 | 0.0 | 0.00 | 0.00 | 0.00 | 74 | 1025.6 |
| 20260509113805 | 54 | 14 | 0.0 | 0.0 | 0.00 | 0.00 | 0.00 | 74 | 1025.6 |
| 20260509113304 | 54 | 14 | 0.0 | 0.0 | 0.00 | 0.00 | 0.00 | 74 | 1025.6 |
| 20260509112805 | 55 | 14 | 0.0 | 0.0 | 0.00 | 0.00 | 0.00 | 73 | 1025.6 |
| 20260509112307 | 55 | 14 | 0.0 | 0.0 | 0.00 | 0.00 | 0.00 | 73 | 1025.6 |
| 20260509111805 | 55 | 14 | 0.0 | 0.0 | 0.00 | 0.00 | 0.00 | 73 | 1025.6 |
| 20260509111305 | 56 | 14 | 0.0 | 0.9 | 0.00 | 0.00 | 0.00 | 72 | 1025.6 |
| 20260509110804 | 56 | 14 | 0.0 | 0.9 | 0.00 | 0.00 | 0.00 | 72 | 1025.6 |
| 20260509105805 | 57 | 10 | 0.9 | 0.9 | 0.00 | 0.00 | 0.00 | 71 | 1025.6 |
| 20260509105306 | 57 | 6 | 0.0 | 1.7 | 0.00 | 0.00 | 0.00 | 70 | 1025.6 |
| 20260509104805 | 58 | 357 | 0.9 | 1.7 | 0.00 | 0.00 | 0.00 | 69 | 1025.6 |
| 20260509104304 | 58 | 294 | 0.0 | 0.9 | 0.00 | 0.00 | 0.00 | 68 | 1025.6 |
| 20260509103805 | 59 | 294 | 0.9 | 0.9 | 0.00 | 0.00 | 0.00 | 67 | 1025.6 |
| 20260509103305 | 59 | 294 | 0.0 | 0.0 | 0.00 | 0.00 | 0.00 | 66 | 1025.6 |
| 20260509102804 | 60 | 294 | 0.0 | 0.9 | 0.00 | 0.00 | 0.00 | 66 | 1025.6 |
| 20260509101805 | 61 | 294 | 0.0 | 0.9 | 0.00 | 0.00 | 0.00 | 64 | 1025.6 |
| 20260509101305 | 61 | 294 | 0.0 | 0.9 | 0.00 | 0.00 | 0.00 | 63 | 1025.5 |
| 20260509100305 | 62 | 294 | 0.0 | 0.9 | 0.00 | 0.00 | 0.00 | 61 | 1025.5 |
| 20260509095306 | 63 | 294 | 0.0 | 0.9 | 0.00 | 0.00 | 0.00 | 59 | 1025.0 |
| 20260509094805 | 64 | 294 | 0.0 | 0.9 | 0.00 | 0.00 | 0.00 | 58 | 1025.0 |
| 20260509093806 | 66 | 294 | 0.0 | 0.0 | 0.00 | 0.00 | 0.00 | 56 | 1025.0 |
| 20260509093305 | 66 | 294 | 0.0 | 0.9 | 0.00 | 0.00 | 0.00 | 55 | 1025.0 |
| 20260509092805 | 66 | 294 | 0.0 | 0.9 | 0.00 | 0.00 | 0.00 | 52 | 1025.0 |
| 20260509092306 | 67 | 308 | 0.0 | 0.9 | 0.00 | 0.00 | 0.00 | 52 | 1025.0 |
| 20260509091805 | 67 | 57 | 0.0 | 0.9 | 0.00 | 0.00 | 0.00 | 51 | 1025.0 |
| 20260509091304 | 67 | 320 | 0.0 | 0.0 | 0.00 | 0.00 | 0.00 | 51 | 1025.0 |
| 20260509085805 | 67 | 8 | 0.0 | 0.9 | 0.00 | 0.00 | 0.00 | 50 | 1025.0 |
| 20260509085306 | 68 | 8 | 0.0 | 0.9 | 0.00 | 0.00 | 0.00 | 48 | 1025.0 |
| 20260509084805 | 68 | 8 | 0.0 | 0.9 | 0.00 | 0.00 | 0.00 | 48 | 1025.1 |
| 20260509084304 | 68 | 5 | 0.0 | 1.7 | 0.00 | 0.00 | 0.00 | 48 | 1025.1 |
| 20260509082307 | 69 | 22 | 0.9 | 2.6 | 0.00 | 0.00 | 0.00 | 47 | 1025.2 |
| 20260509081804 | 70 | 22 | 0.9 | 2.6 | 0.00 | 0.00 | 0.00 | 47 | 1025.2 |
| 20260509080805 | 70 | 48 | 1.7 | 5.2 | 0.00 | 0.00 | 0.00 | 44 | 1025.1 |
| 20260509080305 | 71 | 44 | 2.6 | 5.2 | 0.00 | 0.00 | 0.00 | 43 | 1025.1 |
| 20260509075805 | 71 | 9 | 2.6 | 2.6 | 0.00 | 0.00 | 0.00 | 44 | 1025.1 |
| 20260509075306 | 71 | 33 | 1.7 | 5.2 | 0.00 | 0.00 | 0.00 | 44 | 1025.1 |
| 20260509074305 | 71 | 20 | 1.7 | 4.3 | 0.00 | 0.00 | 0.00 | 43 | 1025.1 |
| 20260509073804 | 71 | 12 | 1.7 | 4.3 | 0.00 | 0.00 | 0.00 | 45 | 1025.1 |
| 20260509072805 | 71 | 41 | 2.6 | 5.2 | 0.00 | 0.00 | 0.00 | 45 | 1025.1 |
| 20260509072306 | 71 | 15 | 2.6 | 7.8 | 0.00 | 0.00 | 0.00 | 45 | 1025.1 |
| 20260509071805 | 72 | 340 | 2.6 | 5.2 | 0.00 | 0.00 | 0.00 | 44 | 1025.1 |
| 20260509071305 | 72 | 357 | 1.7 | 4.3 | 0.00 | 0.00 | 0.00 | 45 | 1025.1 |
| 20260509070805 | 72 | 32 | 2.6 | 5.2 | 0.00 | 0.00 | 0.00 | 45 | 1025.1 |
| 20260509070305 | 72 | 347 | 1.7 | 5.2 | 0.00 | 0.00 | 0.00 | 44 | 1025.1 |
| 20260509065805 | 71 | 31 | 2.6 | 6.1 | 0.00 | 0.00 | 0.00 | 44 | 1025.1 |
| 20260509065306 | 71 | 40 | 2.6 | 7.8 | 0.00 | 0.00 | 0.00 | 46 | 1025.1 |
| 20260509064805 | 71 | 51 | 2.6 | 5.2 | 0.00 | 0.00 | 0.00 | 45 | 1025.1 |
| 20260509064305 | 71 | 27 | 1.7 | 6.1 | 0.00 | 0.00 | 0.00 | 45 | 1025.1 |
| 20260509063304 | 71 | 358 | 1.7 | 6.1 | 0.00 | 0.00 | 0.00 | 46 | 1025.0 |
| 20260509062805 | 71 | 344 | 2.6 | 6.1 | 0.00 | 0.00 | 0.00 | 44 | 1025.0 |
| 20260509062306 | 71 | 22 | 2.6 | 7.8 | 0.00 | 0.00 | 0.00 | 45 | 1025.0 |
| 20260509061804 | 70 | 30 | 3.5 | 6.1 | 0.00 | 0.00 | 0.00 | 49 | 1025.0 |